Time;durP1;ratioP1;P1;durP2;ratioP2;P2;SDS_P1;SDS_P2;PMS_P1;PMS_P2;Temp;Humidity;BMP_temperature;BMP_pressure;BME280_temperature;BME280_humidity;BME280_pressure;Samples;Min_cycle;Max_cycle;Signal;HPM_P1;HPM_P2
2023/05/08 00:02:09;;;;;;;27.90;18.53;;;17.90;99.90;;;;;;7289234;19;20214;-82
2023/05/08 00:04:35;;;;;;;27.93;18.53;;;18.00;99.90;;;;;;7289381;19;20550;-82
2023/05/08 00:07:01;;;;;;;25.40;18.83;;;18.00;99.90;;;;;;7290025;19;20180;-82
2023/05/08 00:09:27;;;;;;;27.97;20.47;;;18.00;99.90;;;;;;7308810;19;20197;-81
2023/05/08 00:11:52;;;;;;;25.47;20.10;;;18.00;99.90;;;;;;7297746;19;20549;-81
2023/05/08 00:14:18;;;;;;;29.60;20.77;;;18.10;99.90;;;;;;7289607;19;20983;-81
2023/05/08 00:16:44;;;;;;;31.13;22.20;;;18.10;99.90;;;;;;7288969;19;20537;-81
2023/05/08 00:19:10;;;;;;;31.30;22.17;;;18.20;99.90;;;;;;7288437;19;20196;-81
2023/05/08 00:21:36;;;;;;;30.37;22.20;;;18.00;99.90;;;;;;7288581;19;20189;-81
2023/05/08 00:24:01;;;;;;;28.10;20.97;;;17.90;99.90;;;;;;7288796;19;20196;-81
2023/05/08 00:26:27;;;;;;;30.53;21.67;;;17.90;99.90;;;;;;7305163;19;20538;-80
2023/05/08 00:28:55;;;;;;;30.50;22.40;;;17.90;99.90;;;;;;7305075;19;20220;-81
2023/05/08 00:31:20;;;;;;;31.93;23.23;;;18.00;99.90;;;;;;7288404;19;20249;-81
2023/05/08 00:33:46;;;;;;;30.77;22.57;;;18.00;99.90;;;;;;7289539;19;20291;-81
2023/05/08 00:36:14;;;;;;;36.50;24.77;;;18.00;99.90;;;;;;7288960;19;20216;-81
2023/05/08 00:38:40;;;;;;;30.57;22.07;;;18.10;99.90;;;;;;7290097;19;20723;-81
2023/05/08 00:41:05;;;;;;;36.40;24.17;;;18.10;99.90;;;;;;7287499;19;20189;-81
2023/05/08 00:43:32;;;;;;;30.43;21.50;;;18.20;99.90;;;;;;7289342;19;20647;-81
2023/05/08 00:46:00;;;;;;;35.07;24.27;;;18.20;99.90;;;;;;7299295;19;20644;-80
2023/05/08 00:48:32;;;;;;;37.73;25.03;;;18.20;99.90;;;;;;7309580;19;20700;-81
2023/05/08 00:50:59;;;;;;;45.43;28.13;;;18.20;99.90;;;;;;7273241;19;20193;-81
2023/05/08 00:53:26;;;;;;;49.23;30.83;;;18.20;99.90;;;;;;7308597;19;20284;-81
2023/05/08 00:55:52;;;;;;;48.73;31.30;;;18.30;99.90;;;;;;7286184;19;20226;-81
2023/05/08 00:58:20;;;;;;;50.97;31.37;;;18.20;99.90;;;;;;7287677;19;20204;-81
2023/05/08 01:00:47;;;;;;;52.67;32.10;;;18.20;99.90;;;;;;7288291;19;20660;-81
2023/05/08 01:03:13;;;;;;;50.10;31.53;;;18.20;99.90;;;;;;7288174;19;20209;-81
2023/05/08 01:05:40;;;;;;;46.90;30.53;;;18.20;99.90;;;;;;7287609;19;20193;-81
2023/05/08 01:08:06;;;;;;;52.80;32.50;;;18.20;99.90;;;;;;7288976;19;20198;-80
2023/05/08 01:10:48;;;;;;;49.33;31.23;;;18.20;99.90;;;;;;7288070;19;20184;-81
2023/05/08 01:13:29;;;;;;;48.53;29.87;;;18.10;99.90;;;;;;7287829;19;20204;-81
2023/05/08 01:16:09;;;;;;;48.77;31.00;;;18.10;99.90;;;;;;7289582;19;20242;-82
2023/05/08 01:18:41;;;;;;;52.60;33.43;;;18.00;99.90;;;;;;7183786;19;2004378;-81
2023/05/08 01:21:15;;;;;;;53.80;33.30;;;18.10;99.90;;;;;;7288703;19;20666;-81
2023/05/08 01:24:22;;;;;;;55.47;33.90;;;18.10;99.90;;;;;;7286622;19;20201;-81
2023/05/08 01:26:53;;;;;;;48.47;32.20;;;18.10;99.90;;;;;;7185808;19;2004856;-81
2023/05/08 01:29:29;;;;;;;55.47;33.80;;;18.10;99.90;;;;;;7287869;19;20268;-81
2023/05/08 01:32:16;;;;;;;51.13;32.50;;;18.10;99.90;;;;;;7286486;19;20222;-81
2023/05/08 01:35:08;;;;;;;51.23;30.73;;;18.10;99.90;;;;;;7186331;19;2004403;-81
2023/05/08 01:37:48;;;;;;;47.40;29.73;;;18.00;99.90;;;;;;7185667;19;2004400;-81
2023/05/08 01:40:42;;;;;;;43.60;27.97;;;18.20;99.90;;;;;;7287176;19;20216;-81
2023/05/08 01:43:50;;;;;;;41.20;26.43;;;18.20;99.90;;;;;;7184616;19;2004512;-82
2023/05/08 01:46:23;;;;;;;39.00;26.23;;;18.30;99.90;;;;;;7185833;19;2006086;-81
2023/05/08 01:48:55;;;;;;;36.60;24.40;;;18.20;99.90;;;;;;7288684;19;20706;-82
2023/05/08 01:51:27;;;;;;;39.07;25.37;;;18.10;99.90;;;;;;7287592;19;20192;-82
2023/05/08 01:54:01;;;;;;;38.43;25.33;;;18.10;99.90;;;;;;7289412;19;20188;-81
2023/05/08 01:56:28;;;;;;;36.63;23.60;;;18.00;99.90;;;;;;7279381;19;20753;-81
2023/05/08 01:58:57;;;;;;;37.00;24.20;;;17.80;99.90;;;;;;7309606;19;20192;-81
2023/05/08 02:01:24;;;;;;;38.93;25.50;;;17.50;99.90;;;;;;7288268;19;20185;-82
2023/05/08 02:03:51;;;;;;;36.70;24.83;;;17.40;99.90;;;;;;7287395;19;20181;-81
2023/05/08 02:06:20;;;;;;;36.57;24.73;;;17.40;99.90;;;;;;7287478;19;20704;-82
2023/05/08 02:08:47;;;;;;;39.43;24.43;;;17.50;99.90;;;;;;7287023;19;20272;-81
2023/05/08 02:11:15;;;;;;;43.10;26.37;;;17.60;99.90;;;;;;7284555;19;20188;-82
2023/05/08 02:13:43;;;;;;;42.10;26.77;;;17.70;99.90;;;;;;7289843;19;20544;-81
2023/05/08 02:16:11;;;;;;;43.07;27.53;;;17.80;99.90;;;;;;7294273;19;20216;-81
2023/05/08 02:18:39;;;;;;;49.70;30.30;;;17.80;99.90;;;;;;7294934;19;20252;-81
2023/05/08 02:21:06;;;;;;;50.37;32.13;;;17.90;99.90;;;;;;7301432;19;20227;-80
2023/05/08 02:23:33;;;;;;;77.60;43.93;;;17.90;99.90;;;;;;7315464;19;20258;-81
2023/05/08 02:26:02;;;;;;;89.53;48.30;;;17.90;99.90;;;;;;7316747;19;20191;-81
2023/05/08 02:28:29;;;;;;;92.50;48.83;;;17.70;99.90;;;;;;7321265;19;20204;-81
2023/05/08 02:30:59;;;;;;;96.13;51.23;;;17.60;99.90;;;;;;7307523;19;20205;-81
2023/05/08 02:33:28;;;;;;;99.70;51.43;;;17.50;99.90;;;;;;7286424;19;20262;-81
2023/05/08 02:35:57;;;;;;;108.77;52.90;;;17.40;99.90;;;;;;7285214;19;20542;-81
2023/05/08 02:38:25;;;;;;;111.40;53.13;;;17.30;99.90;;;;;;7289442;19;20214;-81
2023/05/08 02:40:54;;;;;;;110.23;53.30;;;17.30;99.90;;;;;;7285879;19;20177;-81
2023/05/08 02:43:21;;;;;;;113.20;55.23;;;17.10;99.90;;;;;;7284896;19;20197;-82
2023/05/08 02:46:11;;;;;;;116.00;54.87;;;17.00;99.90;;;;;;7284712;19;20177;-82
2023/05/08 02:48:46;;;;;;;124.27;57.03;;;16.90;99.90;;;;;;7182958;19;2004832;-81
2023/05/08 02:51:36;;;;;;;132.70;58.80;;;17.10;99.90;;;;;;7284753;19;20212;-80
2023/05/08 02:54:22;;;;;;;130.83;59.20;;;17.10;99.90;;;;;;7181870;19;2004790;-81
2023/05/08 02:57:07;;;;;;;131.87;58.10;;;17.00;99.90;;;;;;7283063;19;20185;-82
2023/05/08 02:59:44;;;;;;;152.63;63.17;;;16.90;99.90;;;;;;7181773;19;2004745;-81
2023/05/08 03:02:19;;;;;;;175.77;65.77;;;16.90;99.90;;;;;;7281167;19;20193;-81
2023/05/08 03:04:52;;;;;;;164.80;65.33;;;17.00;99.90;;;;;;7285512;19;20192;-81
2023/05/08 03:07:22;;;;;;;168.90;65.20;;;16.90;99.90;;;;;;7284738;19;20208;-81
2023/05/08 03:10:04;;;;;;;178.63;66.93;;;16.90;99.90;;;;;;7284154;19;20184;-81
2023/05/08 03:12:33;;;;;;;175.13;66.93;;;16.90;99.90;;;;;;7262185;19;20201;-81
2023/05/08 03:15:01;;;;;;;173.17;68.43;;;16.90;99.90;;;;;;7287850;19;20613;-81
2023/05/08 03:17:29;;;;;;;205.73;70.80;;;16.80;99.90;;;;;;7307627;19;20252;-81
2023/05/08 03:19:59;;;;;;;195.37;74.47;;;16.80;99.90;;;;;;7285231;19;20177;-81
2023/05/08 03:22:29;;;;;;;204.90;74.07;;;16.80;99.90;;;;;;7287945;19;20248;-81
2023/05/08 03:24:57;;;;;;;201.13;72.13;;;16.80;99.90;;;;;;7292597;19;20199;-81
2023/05/08 03:27:24;;;;;;;188.13;73.93;;;16.80;99.90;;;;;;7300378;19;20212;-83
2023/05/08 03:29:51;;;;;;;187.93;74.17;;;16.90;99.90;;;;;;7298851;19;20691;-81
2023/05/08 03:32:18;;;;;;;180.93;71.20;;;16.90;99.90;;;;;;7298015;19;20279;-81
2023/05/08 03:34:45;;;;;;;169.47;70.23;;;16.80;99.90;;;;;;7298422;19;20543;-81
2023/05/08 03:37:11;;;;;;;165.23;69.87;;;16.70;99.90;;;;;;7290684;19;20531;-81
2023/05/08 03:39:37;;;;;;;185.10;72.23;;;16.60;99.90;;;;;;7289732;19;20196;-81
2023/05/08 03:42:03;;;;;;;171.77;71.30;;;16.60;99.90;;;;;;7290532;19;20282;-81
2023/05/08 03:44:30;;;;;;;178.13;71.37;;;16.60;99.90;;;;;;7291170;19;20186;-81
2023/05/08 03:46:57;;;;;;;183.60;70.03;;;16.70;99.90;;;;;;7315905;19;20287;-81
2023/05/08 03:49:25;;;;;;;180.30;69.57;;;16.70;99.90;;;;;;7290795;19;20179;-80
2023/05/08 03:51:54;;;;;;;168.97;66.87;;;16.50;99.90;;;;;;7290007;19;20296;-82
2023/05/08 03:54:24;;;;;;;164.43;67.87;;;16.40;99.90;;;;;;7290264;19;20185;-82
2023/05/08 03:56:54;;;;;;;162.50;66.63;;;16.20;99.90;;;;;;7289088;19;20218;-82
2023/05/08 03:59:28;;;;;;;168.63;66.77;;;16.20;99.90;;;;;;7290261;19;20185;-81
2023/05/08 04:02:02;;;;;;;176.97;69.30;;;16.30;99.90;;;;;;7290692;19;20192;-82
2023/05/08 04:04:31;;;;;;;180.23;69.13;;;16.50;99.90;;;;;;7278946;19;20224;-81
2023/05/08 04:07:50;;;;;;;184.47;68.77;;;16.70;99.90;;;;;;7308050;19;20683;-81
2023/05/08 04:10:20;;;;;;;164.33;66.77;;;16.70;99.90;;;;;;7186606;19;2004217;-81
2023/05/08 04:12:52;;;;;;;162.87;69.33;;;16.60;99.90;;;;;;7290966;19;20200;-82
2023/05/08 04:15:23;;;;;;;171.10;68.23;;;16.60;99.90;;;;;;7289746;19;20719;-82
2023/05/08 04:17:54;;;;;;;168.70;67.20;;;16.60;99.90;;;;;;7290156;19;20197;-81
2023/05/08 04:20:23;;;;;;;160.77;63.57;;;16.70;99.90;;;;;;7290449;19;20177;-82
2023/05/08 04:22:52;;;;;;;172.20;68.17;;;16.70;99.90;;;;;;7288891;19;20174;-81
2023/05/08 04:25:18;;;;;;;171.37;66.83;;;16.70;99.90;;;;;;7290932;19;20181;-82
2023/05/08 04:27:46;;;;;;;166.77;66.57;;;16.80;99.90;;;;;;7289196;19;20200;-82
2023/05/08 04:30:13;;;;;;;163.90;65.53;;;16.80;99.90;;;;;;7290393;19;20195;-82
2023/05/08 04:32:40;;;;;;;164.10;66.47;;;16.80;99.90;;;;;;7289718;19;20982;-82
2023/05/08 04:35:06;;;;;;;149.50;62.90;;;16.80;99.90;;;;;;7286670;19;20186;-81
2023/05/08 04:37:33;;;;;;;162.40;65.80;;;16.90;99.90;;;;;;7288564;19;21702;-81
2023/05/08 04:40:03;;;;;;;167.03;65.03;;;16.90;99.90;;;;;;7289793;19;20188;-82
2023/05/08 04:42:30;;;;;;;165.47;64.67;;;16.90;99.90;;;;;;7289648;19;20648;-81
2023/05/08 04:44:58;;;;;;;160.43;64.73;;;16.70;99.90;;;;;;7303447;19;20188;-81
2023/05/08 04:47:24;;;;;;;156.93;64.53;;;16.60;99.90;;;;;;7310922;19;20181;-82
2023/05/08 04:49:51;;;;;;;153.30;60.70;;;16.50;99.90;;;;;;7288242;19;20185;-81
2023/05/08 04:52:16;;;;;;;149.00;61.63;;;16.50;99.90;;;;;;7288798;19;20205;-84
2023/05/08 04:54:42;;;;;;;154.43;63.03;;;16.60;99.90;;;;;;7291551;19;20188;-80
2023/05/08 04:57:08;;;;;;;149.23;62.13;;;16.50;99.90;;;;;;7288264;19;20195;-83
2023/05/08 04:59:34;;;;;;;156.70;64.77;;;16.50;99.90;;;;;;7289863;19;20200;-82
2023/05/08 05:02:01;;;;;;;155.50;61.90;;;16.60;99.90;;;;;;7288388;19;20193;-83
2023/05/08 05:04:28;;;;;;;165.37;64.30;;;16.70;99.90;;;;;;7301344;19;20181;-80
2023/05/08 05:06:56;;;;;;;171.00;67.47;;;16.70;99.90;;;;;;7314100;19;20199;-82
2023/05/08 05:09:24;;;;;;;169.23;66.87;;;16.80;99.90;;;;;;7293952;19;20193;-85
2023/05/08 05:11:50;;;;;;;174.30;68.40;;;16.80;99.90;;;;;;7294621;19;20196;-85
2023/05/08 05:14:16;;;;;;;186.43;68.07;;;16.90;99.90;;;;;;7294012;19;20192;-85
2023/05/08 05:16:41;;;;;;;200.27;67.23;;;16.90;99.90;;;;;;7290985;19;20221;-86
2023/05/08 05:19:07;;;;;;;180.73;66.80;;;16.80;99.90;;;;;;7288804;19;20550;-85
2023/05/08 05:21:33;;;;;;;171.27;63.60;;;16.80;99.90;;;;;;7296083;19;20184;-84
2023/05/08 05:23:59;;;;;;;175.17;61.93;;;16.70;99.90;;;;;;7293972;19;20307;-84
2023/05/08 05:26:25;;;;;;;166.50;62.13;;;16.60;99.90;;;;;;7319393;19;20200;-85
2023/05/08 05:28:51;;;;;;;180.47;62.87;;;16.60;99.90;;;;;;7297242;19;20189;-84
2023/05/08 05:31:21;;;;;;;169.30;61.43;;;16.60;99.90;;;;;;7301402;19;20203;-83
2023/05/08 05:33:47;;;;;;;168.17;60.40;;;16.70;99.90;;;;;;7303906;19;20211;-85
2023/05/08 05:36:13;;;;;;;188.33;64.03;;;16.70;99.90;;;;;;7289528;19;21025;-85
2023/05/08 05:38:38;;;;;;;166.87;59.90;;;16.70;99.90;;;;;;7295180;19;20196;-85
2023/05/08 05:41:04;;;;;;;167.83;59.37;;;16.80;99.90;;;;;;7309856;19;20192;-85
2023/05/08 05:43:31;;;;;;;169.43;61.43;;;16.70;99.90;;;;;;7308557;19;20185;-84
2023/05/08 05:46:04;;;;;;;169.70;60.50;;;16.70;99.90;;;;;;7328288;19;20194;-85
2023/05/08 05:48:29;;;;;;;153.30;56.47;;;16.60;99.90;;;;;;7292107;19;20193;-81
2023/05/08 05:50:55;;;;;;;177.20;60.77;;;16.70;99.90;;;;;;7335913;19;20185;-83
2023/05/08 05:53:21;;;;;;;161.63;57.43;;;16.70;99.90;;;;;;7315742;19;20234;-82
2023/05/08 05:55:47;;;;;;;158.37;57.33;;;16.70;99.90;;;;;;7293455;19;20559;-83
2023/05/08 05:58:14;;;;;;;149.37;56.60;;;16.60;99.90;;;;;;7289353;19;20195;-82
2023/05/08 06:00:40;;;;;;;153.57;56.73;;;16.60;99.90;;;;;;7287533;19;20193;-83
2023/05/08 06:03:07;;;;;;;149.80;55.93;;;16.60;99.90;;;;;;7286688;19;20196;-82
2023/05/08 06:05:32;;;;;;;132.07;54.00;;;16.70;99.90;;;;;;7286799;19;20188;-82
2023/05/08 06:07:58;;;;;;;130.60;53.97;;;16.60;99.90;;;;;;7302655;19;20197;-82
2023/05/08 06:10:24;;;;;;;131.17;51.33;;;16.60;99.90;;;;;;7299897;19;20185;-83
2023/05/08 06:12:50;;;;;;;107.93;46.87;;;16.60;99.90;;;;;;7286905;19;20227;-83
2023/05/08 06:15:17;;;;;;;103.57;46.00;;;16.40;99.90;;;;;;7286590;19;20557;-83
2023/05/08 06:17:44;;;;;;;98.10;44.30;;;16.40;99.90;;;;;;7285824;19;20203;-83
2023/05/08 06:20:11;;;;;;;104.80;46.53;;;16.30;99.90;;;;;;7284988;19;20193;-82
2023/05/08 06:22:39;;;;;;;98.37;45.63;;;16.40;99.90;;;;;;7287378;19;20881;-83
2023/05/08 06:25:06;;;;;;;100.10;45.30;;;16.40;99.90;;;;;;7286137;19;20217;-83
2023/05/08 06:27:33;;;;;;;100.10;45.23;;;16.60;99.90;;;;;;7285880;19;20193;-82
2023/05/08 06:29:58;;;;;;;101.97;46.23;;;16.90;99.90;;;;;;7300735;19;20556;-82
2023/05/08 06:32:24;;;;;;;101.90;48.40;;;17.10;99.90;;;;;;7300659;19;20729;-83
2023/05/08 06:34:50;;;;;;;96.27;47.17;;;17.20;99.90;;;;;;7285055;19;20250;-83
2023/05/08 06:37:16;;;;;;;96.17;46.63;;;17.40;99.90;;;;;;7286202;19;20226;-83
2023/05/08 06:39:41;;;;;;;98.47;46.80;;;17.40;99.90;;;;;;7284385;19;20204;-82
2023/05/08 06:42:07;;;;;;;99.40;46.53;;;17.60;99.90;;;;;;7285067;19;20223;-82
2023/05/08 06:44:36;;;;;;;96.77;46.90;;;17.60;99.90;;;;;;7282897;19;20185;-82
2023/05/08 06:47:02;;;;;;;102.27;47.23;;;17.60;99.90;;;;;;7284968;19;20275;-83
2023/05/08 06:49:28;;;;;;;104.73;48.70;;;17.70;99.90;;;;;;7301143;19;20192;-81
2023/05/08 06:51:54;;;;;;;106.87;49.83;;;17.60;99.90;;;;;;7298214;19;20197;-83
2023/05/08 06:54:20;;;;;;;116.33;51.87;;;17.70;99.90;;;;;;7285320;19;20679;-82
2023/05/08 06:56:45;;;;;;;125.13;55.93;;;17.80;99.90;;;;;;7285623;19;20248;-82
2023/05/08 06:59:11;;;;;;;133.03;60.87;;;17.90;99.90;;;;;;7291417;19;20192;-82
2023/05/08 07:01:37;;;;;;;125.87;53.83;;;17.90;99.90;;;;;;7292122;19;20189;-82
2023/05/08 07:04:03;;;;;;;113.80;50.90;;;18.00;99.90;;;;;;7291924;19;20189;-82
2023/05/08 07:06:30;;;;;;;119.40;51.50;;;17.90;99.90;;;;;;7298236;19;20204;-82
2023/05/08 07:08:56;;;;;;;119.97;51.30;;;17.90;99.90;;;;;;7314790;19;20184;-82
2023/05/08 07:11:22;;;;;;;117.90;50.20;;;17.80;99.90;;;;;;7292567;19;20284;-82
2023/05/08 07:13:48;;;;;;;124.53;51.70;;;17.90;99.90;;;;;;7292327;19;20227;-82
2023/05/08 07:16:15;;;;;;;126.07;51.63;;;17.80;99.90;;;;;;7292410;19;20189;-82
2023/05/08 07:18:41;;;;;;;125.93;52.33;;;17.80;99.90;;;;;;7291597;19;20189;-82
2023/05/08 07:21:07;;;;;;;126.17;50.83;;;17.80;99.90;;;;;;7292707;19;20633;-82
2023/05/08 07:23:33;;;;;;;128.37;50.17;;;17.90;99.90;;;;;;7290463;19;20176;-82
2023/05/08 07:25:59;;;;;;;130.37;50.87;;;18.00;99.90;;;;;;7301258;19;20204;-81
2023/05/08 07:28:25;;;;;;;124.50;49.67;;;18.10;99.90;;;;;;7313434;19;20181;-83
2023/05/08 07:30:51;;;;;;;123.33;48.27;;;18.00;99.90;;;;;;7290641;19;20192;-83
2023/05/08 07:33:17;;;;;;;108.07;45.53;;;18.10;99.90;;;;;;7291619;19;20192;-83
2023/05/08 07:35:43;;;;;;;111.97;45.17;;;18.20;99.90;;;;;;7291640;19;20189;-82
2023/05/08 07:38:09;;;;;;;91.63;40.53;;;18.40;99.90;;;;;;7289939;19;20188;-83
2023/05/08 07:40:35;;;;;;;94.00;41.83;;;18.40;99.90;;;;;;7292545;19;20195;-83
2023/05/08 07:43:00;;;;;;;85.97;39.60;;;18.50;99.90;;;;;;7289966;19;20293;-82
2023/05/08 07:45:27;;;;;;;90.87;40.23;;;18.60;99.90;;;;;;7313797;19;20564;-83
2023/05/08 07:47:55;;;;;;;97.37;42.40;;;18.70;99.90;;;;;;7290847;19;20214;-82
2023/05/08 07:50:21;;;;;;;104.43;43.83;;;18.60;99.90;;;;;;7291510;19;20272;-82
2023/05/08 07:52:47;;;;;;;104.93;44.17;;;18.60;99.90;;;;;;7291469;19;20539;-83
2023/05/08 07:55:13;;;;;;;104.70;43.83;;;18.60;99.90;;;;;;7290882;19;20188;-83
2023/05/08 07:57:41;;;;;;;107.27;45.90;;;18.60;99.90;;;;;;7290361;19;20189;-81
2023/05/08 08:00:12;;;;;;;107.50;44.80;;;18.60;99.90;;;;;;7292096;19;20365;-80
2023/05/08 08:02:41;;;;;;;107.07;46.27;;;18.70;99.90;;;;;;7290252;19;20252;-82
2023/05/08 08:05:07;;;;;;;106.30;43.40;;;18.70;99.90;;;;;;7291451;19;20211;-81
2023/05/08 08:07:34;;;;;;;98.30;41.57;;;18.90;99.90;;;;;;7289656;19;20192;-82
2023/05/08 08:10:00;;;;;;;101.77;40.77;;;19.00;99.90;;;;;;7292177;19;20676;-81
2023/05/08 08:12:26;;;;;;;95.00;39.73;;;19.10;99.90;;;;;;7312258;19;20534;-82
2023/05/08 08:14:52;;;;;;;97.57;41.07;;;19.10;99.90;;;;;;7291636;19;20184;-82
2023/05/08 08:17:17;;;;;;;93.10;40.20;;;19.30;99.90;;;;;;7290081;19;20199;-82
2023/05/08 08:19:43;;;;;;;84.17;37.43;;;19.50;99.90;;;;;;7289540;19;20208;-82
2023/05/08 08:22:09;;;;;;;84.97;40.60;;;19.70;99.90;;;;;;7291130;19;20198;-82
2023/05/08 08:24:35;;;;;;;88.60;39.50;;;19.70;99.90;;;;;;7289374;19;20192;-82
2023/05/08 08:27:01;;;;;;;87.33;39.83;;;19.60;99.90;;;;;;7292135;19;20184;-82
2023/05/08 08:29:27;;;;;;;81.47;37.07;;;19.50;99.90;;;;;;7311675;19;20267;-82
2023/05/08 08:31:52;;;;;;;75.53;36.47;;;19.50;99.90;;;;;;7289297;19;20186;-82
2023/05/08 08:34:18;;;;;;;70.20;35.10;;;19.50;99.90;;;;;;7291142;19;20194;-81
2023/05/08 08:36:44;;;;;;;78.00;37.30;;;19.70;99.90;;;;;;7289083;19;20189;-81
2023/05/08 08:39:10;;;;;;;76.67;36.83;;;19.70;99.90;;;;;;7289412;19;20181;-82
2023/05/08 08:41:38;;;;;;;69.07;34.37;;;19.80;99.90;;;;;;7289457;19;20186;-81
2023/05/08 08:44:04;;;;;;;70.60;33.97;;;19.80;99.90;;;;;;7287971;19;20201;-82
2023/05/08 08:46:32;;;;;;;71.00;37.27;;;19.80;99.90;;;;;;7287866;19;20186;-80
2023/05/08 08:48:58;;;;;;;74.67;36.30;;;19.70;99.90;;;;;;7311103;19;20183;-82
2023/05/08 08:51:27;;;;;;;71.83;36.33;;;19.50;99.90;;;;;;7289371;19;20181;-83
2023/05/08 08:54:14;;;;;;;68.57;35.83;;;19.30;99.90;;;;;;7290459;19;20184;-82
2023/05/08 08:56:43;;;;;;;69.77;35.27;;;19.30;99.90;;;;;;7186317;19;2004586;-82
2023/05/08 08:59:12;;;;;;;72.70;35.83;;;19.40;99.90;;;;;;7289465;19;20197;-82
2023/05/08 09:01:39;;;;;;;68.03;35.13;;;19.40;99.90;;;;;;7289729;19;20516;-82
2023/05/08 09:04:06;;;;;;;65.13;34.47;;;19.50;99.90;;;;;;7288023;19;20188;-81
2023/05/08 09:06:35;;;;;;;66.83;33.57;;;19.50;99.90;;;;;;7296356;19;20193;-81
2023/05/08 09:09:01;;;;;;;63.90;32.47;;;19.60;99.90;;;;;;7318653;19;20185;-79
2023/05/08 09:11:27;;;;;;;59.00;31.90;;;19.60;99.90;;;;;;7337128;19;20191;-81
2023/05/08 09:13:57;;;;;;;67.53;32.40;;;19.70;99.90;;;;;;7293090;19;20215;-81
2023/05/08 09:16:23;;;;;;;62.13;31.77;;;19.80;99.90;;;;;;7290788;19;20181;-82
2023/05/08 09:18:49;;;;;;;61.07;32.57;;;19.70;99.90;;;;;;7289572;19;20183;-81
2023/05/08 09:21:15;;;;;;;58.17;31.00;;;19.70;99.90;;;;;;7287727;19;20265;-81
2023/05/08 09:24:03;;;;;;;56.90;30.87;;;19.80;99.90;;;;;;7287721;19;20189;-81
2023/05/08 09:26:38;;;;;;;53.53;28.90;;;19.90;99.90;;;;;;7282608;19;20193;-80
2023/05/08 09:29:18;;;;;;;53.33;28.23;;;20.00;99.90;;;;;;7288506;19;20315;-81
2023/05/08 09:31:49;;;;;;;51.73;27.43;;;20.30;99.90;;;;;;7288278;19;20675;-81
2023/05/08 09:34:27;;;;;;;46.53;26.40;;;20.80;99.90;;;;;;7287791;19;20191;-82
2023/05/08 09:36:54;;;;;;;46.97;27.23;;;21.10;99.90;;;;;;7288264;19;20650;-82
2023/05/08 09:39:25;;;;;;;46.00;26.10;;;21.30;99.90;;;;;;7287878;19;20259;-82
2023/05/08 09:42:02;;;;;;;46.90;26.40;;;21.70;99.90;;;;;;7288642;19;20180;-82
2023/05/08 09:44:41;;;;;;;47.07;27.17;;;21.60;99.90;;;;;;7288682;19;20179;-82
2023/05/08 09:47:19;;;;;;;45.53;26.47;;;21.70;99.90;;;;;;7185751;19;2004589;-82
2023/05/08 09:50:02;;;;;;;50.43;27.30;;;21.80;99.90;;;;;;7288687;19;20195;-82
2023/05/08 09:52:29;;;;;;;46.03;25.70;;;21.80;99.90;;;;;;7287882;19;20192;-82
2023/05/08 09:54:59;;;;;;;43.73;25.50;;;21.50;99.90;;;;;;7288596;19;20271;-83
2023/05/08 09:57:26;;;;;;;43.73;24.30;;;21.30;99.90;;;;;;7287205;19;20618;-82
2023/05/08 10:00:08;;;;;;;45.70;24.97;;;21.40;99.90;;;;;;7287702;19;20188;-82
2023/05/08 10:02:37;;;;;;;45.53;24.67;;;21.50;99.90;;;;;;7185319;19;2004545;-82
2023/05/08 10:05:20;;;;;;;45.50;24.73;;;21.70;99.90;;;;;;7286478;19;20201;-81
2023/05/08 10:07:46;;;;;;;46.53;25.63;;;21.80;99.90;;;;;;7287265;19;20203;-83
2023/05/08 10:10:12;;;;;;;45.60;25.77;;;22.10;99.90;;;;;;7285701;19;20185;-83
2023/05/08 10:12:40;;;;;;;46.67;26.93;;;22.60;99.90;;;;;;7285685;19;20663;-82
2023/05/08 10:15:06;;;;;;;42.97;25.63;;;22.50;99.90;;;;;;7287208;19;20196;-82
2023/05/08 10:17:52;;;;;;;47.90;26.70;;;22.70;99.90;;;;;;7286860;19;20177;-82
2023/05/08 10:20:19;;;;;;;39.17;24.23;;;22.70;99.90;;;;;;7287000;19;20202;-82
2023/05/08 10:22:48;;;;;;;44.17;24.33;;;22.80;99.90;;;;;;7285889;19;20188;-80
2023/05/08 10:25:18;;;;;;;45.73;25.13;;;22.70;99.90;;;;;;7286406;19;20206;-80
2023/05/08 10:28:05;;;;;;;42.70;23.90;;;23.00;99.90;;;;;;7286714;19;20192;-81
2023/05/08 10:30:37;;;;;;;35.30;22.63;;;23.20;99.90;;;;;;7264313;19;20185;-82
2023/05/08 10:33:06;;;;;;;37.27;21.63;;;23.10;99.90;;;;;;7282919;19;20191;-82
2023/05/08 10:35:32;;;;;;;35.13;22.00;;;22.80;99.90;;;;;;7286965;19;20192;-82
2023/05/08 10:37:58;;;;;;;36.90;21.97;;;22.80;99.90;;;;;;7306938;19;20185;-82
2023/05/08 10:40:24;;;;;;;40.97;23.40;;;22.60;99.90;;;;;;7288073;19;20609;-82
2023/05/08 10:42:50;;;;;;;40.90;23.50;;;22.90;99.90;;;;;;7286152;19;20199;-83
2023/05/08 10:45:16;;;;;;;39.97;23.70;;;23.20;99.90;;;;;;7286349;19;20236;-81
2023/05/08 10:47:56;;;;;;;44.33;24.83;;;23.60;99.90;;;;;;7286650;19;20212;-81
2023/05/08 10:50:50;;;;;;;41.20;24.27;;;23.70;99.90;;;;;;7284475;19;20192;-82
2023/05/08 10:53:47;;;;;;;40.23;24.73;;;23.80;99.90;;;;;;7184938;19;2004596;-82
2023/05/08 10:56:13;;;;;;;38.57;23.30;;;23.60;99.90;;;;;;7183186;19;2004417;-81
2023/05/08 10:58:39;;;;;;;42.47;25.23;;;22.50;99.90;;;;;;7283715;19;20202;-82
2023/05/08 11:01:07;;;;;;;42.53;25.37;;;22.20;99.90;;;;;;7286775;19;20193;-81
2023/05/08 11:03:59;;;;;;;46.77;26.90;;;22.10;99.90;;;;;;7285334;19;20198;-81
2023/05/08 11:06:44;;;;;;;49.77;29.10;;;22.10;99.90;;;;;;7285591;19;20332;-81
2023/05/08 11:09:25;;;;;;;50.13;29.60;;;22.20;99.90;;;;;;7184019;19;2005000;-81
2023/05/08 11:12:17;;;;;;;52.03;29.50;;;22.10;99.90;;;;;;7283793;19;20597;-81
2023/05/08 11:14:52;;;;;;;55.37;31.40;;;22.30;99.90;;;;;;7182740;19;2006214;-81
2023/05/08 11:17:22;;;;;;;55.03;32.10;;;22.40;99.90;;;;;;7284941;19;20189;-82
2023/05/08 11:19:56;;;;;;;51.20;30.50;;;22.50;99.90;;;;;;7282509;19;22340;-82
2023/05/08 11:22:24;;;;;;;54.27;30.30;;;22.50;99.90;;;;;;7286817;19;20181;-82
2023/05/08 11:24:56;;;;;;;52.27;30.43;;;22.80;99.90;;;;;;7283707;19;20265;-82
2023/05/08 11:27:32;;;;;;;54.13;31.17;;;23.00;99.90;;;;;;7284329;19;20276;-82
2023/05/08 11:30:33;;;;;;;55.80;32.17;;;23.50;99.90;;;;;;7285002;19;20188;-83
2023/05/08 11:33:01;;;;;;;53.40;30.87;;;23.90;99.90;;;;;;7176344;19;2004605;-82
2023/05/08 11:35:43;;;;;;;61.50;34.37;;;24.10;99.90;;;;;;7306542;19;20202;-83
2023/05/08 11:38:18;;;;;;;68.57;38.63;;;24.40;99.90;;;;;;7181609;19;2004485;-83
2023/05/08 11:40:48;;;;;;;72.07;39.83;;;24.70;99.90;;;;;;7283576;19;20636;-84
2023/05/08 11:43:32;;;;;;;77.97;43.87;;;24.70;99.90;;;;;;7287055;19;20189;-81
2023/05/08 11:46:09;;;;;;;81.70;44.70;;;24.40;99.90;;;;;;7292547;19;20188;-81
2023/05/08 11:48:35;;;;;;;82.17;43.80;;;24.30;99.90;;;;;;7189267;19;2004469;-81
2023/05/08 11:51:02;;;;;;;76.77;41.63;;;24.70;99.90;;;;;;7290795;19;20192;-81
2023/05/08 11:53:31;;;;;;;65.47;36.43;;;24.90;99.90;;;;;;7312911;19;20177;-82
2023/05/08 11:55:58;;;;;;;61.60;35.47;;;24.80;99.90;;;;;;7290981;19;20188;-82
2023/05/08 11:58:24;;;;;;;59.40;35.03;;;24.80;99.90;;;;;;7289792;19;20208;-82
2023/05/08 12:00:50;;;;;;;65.20;36.03;;;25.00;99.90;;;;;;7290574;19;20649;-82
2023/05/08 12:03:20;;;;;;;58.63;34.60;;;25.10;99.90;;;;;;7289948;19;20244;-82
2023/05/08 12:05:47;;;;;;;64.40;34.27;;;25.40;99.90;;;;;;7289840;19;20709;-83
2023/05/08 12:08:15;;;;;;;58.63;33.33;;;25.40;99.90;;;;;;7290358;19;20185;-82
2023/05/08 12:10:55;;;;;;;61.70;34.47;;;25.20;99.90;;;;;;7289615;19;20273;-83
2023/05/08 12:13:28;;;;;;;58.13;31.77;;;25.10;99.90;;;;;;7289853;19;20188;-83
2023/05/08 12:15:58;;;;;;;55.25;31.20;;;25.20;99.90;;;;;;7292222;19;20652;-82
2023/05/08 12:18:26;;;;;;;54.43;31.57;;;25.30;99.90;;;;;;7290744;19;20188;-82
2023/05/08 12:20:55;;;;;;;40.03;23.53;;;25.40;99.90;;;;;;7291447;19;20566;-82
2023/05/08 12:23:22;;;;;;;39.23;20.97;;;25.20;99.90;;;;;;7289824;19;20215;-82
2023/05/08 12:25:52;;;;;;;39.50;24.13;;;25.30;99.90;;;;;;7304855;19;20200;-81
2023/05/08 12:28:18;;;;;;;41.83;25.47;;;25.50;99.90;;;;;;7288635;19;20188;-82
2023/05/08 12:30:43;;;;;;;45.80;26.10;;;25.60;99.90;;;;;;7289286;19;20191;-83
2023/05/08 12:33:10;;;;;;;43.37;26.50;;;25.80;99.90;;;;;;7288662;19;20193;-82
2023/05/08 12:35:37;;;;;;;45.45;27.67;;;26.00;99.90;;;;;;7289413;19;20185;-82